sensor_id;sensor_type;location;lat;lon;timestamp;temperature;humidity
43963;DHT22;29622;45.534;9.242;2022-09-24T00:03:22;20.30;36.80
43963;DHT22;29622;45.534;9.242;2022-09-24T00:08:24;20.20;36.80
43963;DHT22;29622;45.534;9.242;2022-09-24T00:13:25;20.10;36.90
43963;DHT22;29622;45.534;9.242;2022-09-24T00:18:25;20.10;37.10
43963;DHT22;29622;45.534;9.242;2022-09-24T00:23:26;20.00;37.30
43963;DHT22;29622;45.534;9.242;2022-09-24T00:28:26;19.90;37.50
43963;DHT22;29622;45.534;9.242;2022-09-24T00:33:27;19.90;37.90
43963;DHT22;29622;45.534;9.242;2022-09-24T00:38:31;20.00;38.20
43963;DHT22;29622;45.534;9.242;2022-09-24T00:43:36;20.30;38.60
43963;DHT22;29622;45.534;9.242;2022-09-24T00:48:37;20.50;38.30
43963;DHT22;29622;45.534;9.242;2022-09-24T00:53:39;20.60;38.30
43963;DHT22;29622;45.534;9.242;2022-09-24T00:58:44;20.70;38.50
43963;DHT22;29622;45.534;9.242;2022-09-24T01:03:46;20.70;38.60
43963;DHT22;29622;45.534;9.242;2022-09-24T01:08:48;20.70;38.70
43963;DHT22;29622;45.534;9.242;2022-09-24T01:30:21;20.80;38.20
43963;DHT22;29622;45.534;9.242;2022-09-24T01:35:42;20.70;38.40
43963;DHT22;29622;45.534;9.242;2022-09-24T01:40:45;20.50;38.40
43963;DHT22;29622;45.534;9.242;2022-09-24T01:45:46;20.40;38.40
43963;DHT22;29622;45.534;9.242;2022-09-24T01:55:58;20.60;38.20
43963;DHT22;29622;45.534;9.242;2022-09-24T02:01:06;20.60;38.20
43963;DHT22;29622;45.534;9.242;2022-09-24T02:06:17;21.00;38.20
43963;DHT22;29622;45.534;9.242;2022-09-24T02:11:21;21.50;37.70
43963;DHT22;29622;45.534;9.242;2022-09-24T02:16:28;21.80;37.40
43963;DHT22;29622;45.534;9.242;2022-09-24T02:21:31;22.10;37.30
43963;DHT22;29622;45.534;9.242;2022-09-24T02:26:32;22.20;37.50
43963;DHT22;29622;45.534;9.242;2022-09-24T02:31:39;22.30;37.40
43963;DHT22;29622;45.534;9.242;2022-09-24T02:36:42;22.20;37.20
43963;DHT22;29622;45.534;9.242;2022-09-24T02:41:48;22.00;37.10
43963;DHT22;29622;45.534;9.242;2022-09-24T02:46:49;22.00;36.90
43963;DHT22;29622;45.534;9.242;2022-09-24T02:51:50;21.70;36.80
43963;DHT22;29622;45.534;9.242;2022-09-24T02:56:51;21.50;37.20
43963;DHT22;29622;45.534;9.242;2022-09-24T03:01:52;21.50;37.00
43963;DHT22;29622;45.534;9.242;2022-09-24T03:06:53;21.40;36.90
43963;DHT22;29622;45.534;9.242;2022-09-24T03:11:53;21.20;37.10
43963;DHT22;29622;45.534;9.242;2022-09-24T03:16:54;20.80;37.40
43963;DHT22;29622;45.534;9.242;2022-09-24T03:21:55;20.50;37.50
43963;DHT22;29622;45.534;9.242;2022-09-24T03:26:56;20.40;38.00
43963;DHT22;29622;45.534;9.242;2022-09-24T03:31:56;20.30;38.00
43963;DHT22;29622;45.534;9.242;2022-09-24T03:36:57;20.10;38.20
43963;DHT22;29622;45.534;9.242;2022-09-24T03:41:58;20.00;38.40
43963;DHT22;29622;45.534;9.242;2022-09-24T03:46:58;20.10;38.70
43963;DHT22;29622;45.534;9.242;2022-09-24T03:51:59;20.00;38.70
43963;DHT22;29622;45.534;9.242;2022-09-24T03:56:59;20.00;38.70
43963;DHT22;29622;45.534;9.242;2022-09-24T04:02:00;20.00;39.10
43963;DHT22;29622;45.534;9.242;2022-09-24T04:07:01;19.90;38.90
43963;DHT22;29622;45.534;9.242;2022-09-24T04:12:01;19.90;39.10
43963;DHT22;29622;45.534;9.242;2022-09-24T04:17:02;20.00;39.10
43963;DHT22;29622;45.534;9.242;2022-09-24T04:22:03;20.00;39.00
43963;DHT22;29622;45.534;9.242;2022-09-24T04:27:03;19.90;39.20
43963;DHT22;29622;45.534;9.242;2022-09-24T04:32:04;20.00;39.10
43963;DHT22;29622;45.534;9.242;2022-09-24T04:37:05;19.80;39.10
43963;DHT22;29622;45.534;9.242;2022-09-24T04:42:05;19.70;39.30
43963;DHT22;29622;45.534;9.242;2022-09-24T04:47:07;19.60;39.40
43963;DHT22;29622;45.534;9.242;2022-09-24T04:52:08;19.60;39.70
43963;DHT22;29622;45.534;9.242;2022-09-24T04:57:09;19.60;40.00
43963;DHT22;29622;45.534;9.242;2022-09-24T05:02:10;19.50;40.10
43963;DHT22;29622;45.534;9.242;2022-09-24T05:07:12;19.50;40.00
43963;DHT22;29622;45.534;9.242;2022-09-24T05:12:13;19.50;40.00
43963;DHT22;29622;45.534;9.242;2022-09-24T05:17:14;19.50;40.20
43963;DHT22;29622;45.534;9.242;2022-09-24T05:22:15;19.50;40.40
43963;DHT22;29622;45.534;9.242;2022-09-24T05:27:16;19.60;40.60
43963;DHT22;29622;45.534;9.242;2022-09-24T05:32:19;19.70;40.40
43963;DHT22;29622;45.534;9.242;2022-09-24T05:37:20;19.90;40.30
43963;DHT22;29622;45.534;9.242;2022-09-24T05:42:21;19.90;40.40
43963;DHT22;29622;45.534;9.242;2022-09-24T05:47:22;19.90;40.60
43963;DHT22;29622;45.534;9.242;2022-09-24T05:52:22;19.90;40.90
43963;DHT22;29622;45.534;9.242;2022-09-24T05:57:23;19.90;40.70
43963;DHT22;29622;45.534;9.242;2022-09-24T06:02:24;19.70;41.00
43963;DHT22;29622;45.534;9.242;2022-09-24T06:07:25;19.70;41.00
43963;DHT22;29622;45.534;9.242;2022-09-24T06:12:26;19.70;41.00
43963;DHT22;29622;45.534;9.242;2022-09-24T06:17:27;19.70;41.00
43963;DHT22;29622;45.534;9.242;2022-09-24T06:22:33;19.80;41.00
43963;DHT22;29622;45.534;9.242;2022-09-24T06:27:51;19.80;41.00
43963;DHT22;29622;45.534;9.242;2022-09-24T06:33:00;19.70;41.30
43963;DHT22;29622;45.534;9.242;2022-09-24T06:38:07;19.80;41.50
43963;DHT22;29622;45.534;9.242;2022-09-24T06:43:13;20.00;41.40
43963;DHT22;29622;45.534;9.242;2022-09-24T06:48:17;20.40;41.10
43963;DHT22;29622;45.534;9.242;2022-09-24T06:53:27;20.30;40.80
43963;DHT22;29622;45.534;9.242;2022-09-24T06:58:34;20.10;41.00
43963;DHT22;29622;45.534;9.242;2022-09-24T07:03:59;19.80;41.20
43963;DHT22;29622;45.534;9.242;2022-09-24T07:09:03;19.70;41.40
43963;DHT22;29622;45.534;9.242;2022-09-24T07:14:05;19.80;41.40
43963;DHT22;29622;45.534;9.242;2022-09-24T07:19:06;19.80;41.40
43963;DHT22;29622;45.534;9.242;2022-09-24T07:24:07;19.80;41.30
43963;DHT22;29622;45.534;9.242;2022-09-24T07:29:07;20.00;41.50
43963;DHT22;29622;45.534;9.242;2022-09-24T07:34:08;20.10;41.30
43963;DHT22;29622;45.534;9.242;2022-09-24T07:39:09;20.20;41.00
43963;DHT22;29622;45.534;9.242;2022-09-24T07:44:10;20.10;41.20
43963;DHT22;29622;45.534;9.242;2022-09-24T07:49:11;20.20;41.50
43963;DHT22;29622;45.534;9.242;2022-09-24T07:54:12;20.30;41.50
43963;DHT22;29622;45.534;9.242;2022-09-24T07:59:13;20.60;42.10
43963;DHT22;29622;45.534;9.242;2022-09-24T08:04:14;20.30;41.60
43963;DHT22;29622;45.534;9.242;2022-09-24T08:09:15;19.90;42.60
43963;DHT22;29622;45.534;9.242;2022-09-24T08:14:16;19.50;43.20
43963;DHT22;29622;45.534;9.242;2022-09-24T08:19:17;19.20;43.50
43963;DHT22;29622;45.534;9.242;2022-09-24T08:24:18;19.00;43.80
43963;DHT22;29622;45.534;9.242;2022-09-24T08:29:19;18.90;44.00
43963;DHT22;29622;45.534;9.242;2022-09-24T08:34:20;18.90;44.30
43963;DHT22;29622;45.534;9.242;2022-09-24T08:39:20;18.90;44.30
43963;DHT22;29622;45.534;9.242;2022-09-24T08:44:39;18.70;44.50
43963;DHT22;29622;45.534;9.242;2022-09-24T08:50:07;18.60;45.70
43963;DHT22;29622;45.534;9.242;2022-09-24T08:55:37;18.40;45.60
43963;DHT22;29622;45.534;9.242;2022-09-24T09:00:45;18.30;46.50
43963;DHT22;29622;45.534;9.242;2022-09-24T09:05:53;18.20;46.40
43963;DHT22;29622;45.534;9.242;2022-09-24T09:10:59;18.00;46.80
43963;DHT22;29622;45.534;9.242;2022-09-24T09:16:19;18.10;47.40
43963;DHT22;29622;45.534;9.242;2022-09-24T09:21:38;18.00;48.30
43963;DHT22;29622;45.534;9.242;2022-09-24T09:26:45;18.00;48.80
43963;DHT22;29622;45.534;9.242;2022-09-24T09:37:09;17.90;48.90
43963;DHT22;29622;45.534;9.242;2022-09-24T09:42:31;17.90;49.60
43963;DHT22;29622;45.534;9.242;2022-09-24T09:47:40;17.80;50.30
43963;DHT22;29622;45.534;9.242;2022-09-24T09:52:43;17.80;50.20
43963;DHT22;29622;45.534;9.242;2022-09-24T09:57:44;18.00;50.00
43963;DHT22;29622;45.534;9.242;2022-09-24T10:02:49;18.10;50.10
43963;DHT22;29622;45.534;9.242;2022-09-24T10:07:59;18.00;50.40
43963;DHT22;29622;45.534;9.242;2022-09-24T10:13:08;17.90;50.80
43963;DHT22;29622;45.534;9.242;2022-09-24T10:18:11;17.90;51.10
43963;DHT22;29622;45.534;9.242;2022-09-24T10:23:20;18.10;51.00
43963;DHT22;29622;45.534;9.242;2022-09-24T10:28:23;18.00;51.30
43963;DHT22;29622;45.534;9.242;2022-09-24T10:34:05;18.10;51.20
43963;DHT22;29622;45.534;9.242;2022-09-24T10:39:15;18.30;51.20
43963;DHT22;29622;45.534;9.242;2022-09-24T10:44:19;18.30;50.80
43963;DHT22;29622;45.534;9.242;2022-09-24T11:00:15;17.90;51.80
43963;DHT22;29622;45.534;9.242;2022-09-24T11:05:22;17.80;52.50
43963;DHT22;29622;45.534;9.242;2022-09-24T11:16:09;17.80;52.70
43963;DHT22;29622;45.534;9.242;2022-09-24T11:48:27;18.40;52.60
43963;DHT22;29622;45.534;9.242;2022-09-24T11:53:55;18.50;52.30
43963;DHT22;29622;45.534;9.242;2022-09-24T12:04:26;18.50;52.30
43963;DHT22;29622;45.534;9.242;2022-09-24T12:09:50;18.50;52.30
43963;DHT22;29622;45.534;9.242;2022-09-24T12:14:57;18.60;52.20
43963;DHT22;29622;45.534;9.242;2022-09-24T12:20:20;18.50;52.70
43963;DHT22;29622;45.534;9.242;2022-09-24T12:25:23;18.50;52.60
43963;DHT22;29622;45.534;9.242;2022-09-24T12:30:33;18.50;52.30
43963;DHT22;29622;45.534;9.242;2022-09-24T12:41:22;18.60;52.40
43963;DHT22;29622;45.534;9.242;2022-09-24T12:46:52;18.70;52.90
43963;DHT22;29622;45.534;9.242;2022-09-24T12:52:00;18.90;52.80
43963;DHT22;29622;45.534;9.242;2022-09-24T13:02:46;19.00;52.40
43963;DHT22;29622;45.534;9.242;2022-09-24T13:13:32;19.20;52.60
43963;DHT22;29622;45.534;9.242;2022-09-24T13:24:52;19.30;52.00
43963;DHT22;29622;45.534;9.242;2022-09-24T13:36:18;19.30;52.20
43963;DHT22;29622;45.534;9.242;2022-09-24T13:46:55;19.20;52.00
43963;DHT22;29622;45.534;9.242;2022-09-24T13:52:25;19.20;52.30
43963;DHT22;29622;45.534;9.242;2022-09-24T13:58:01;19.10;53.00
43963;DHT22;29622;45.534;9.242;2022-09-24T14:09:30;18.90;53.50
43963;DHT22;29622;45.534;9.242;2022-09-24T14:14:36;18.90;53.70
43963;DHT22;29622;45.534;9.242;2022-09-24T14:19:47;18.80;53.30
43963;DHT22;29622;45.534;9.242;2022-09-24T14:31:02;18.80;53.80
43963;DHT22;29622;45.534;9.242;2022-09-24T14:36:11;18.70;53.40
43963;DHT22;29622;45.534;9.242;2022-09-24T14:41:23;18.50;53.70
43963;DHT22;29622;45.534;9.242;2022-09-24T14:53:01;18.50;54.10
43963;DHT22;29622;45.534;9.242;2022-09-24T14:58:37;18.40;54.40
43963;DHT22;29622;45.534;9.242;2022-09-24T15:04:15;18.40;54.60
43963;DHT22;29622;45.534;9.242;2022-09-24T15:10:02;18.40;54.80
43963;DHT22;29622;45.534;9.242;2022-09-24T15:21:02;18.30;54.80
43963;DHT22;29622;45.534;9.242;2022-09-24T15:26:05;18.20;54.70
43963;DHT22;29622;45.534;9.242;2022-09-24T15:31:08;18.10;55.10
43963;DHT22;29622;45.534;9.242;2022-09-24T15:36:40;18.10;55.20
43963;DHT22;29622;45.534;9.242;2022-09-24T15:41:54;18.00;55.70
43963;DHT22;29622;45.534;9.242;2022-09-24T15:47:01;17.90;55.50
43963;DHT22;29622;45.534;9.242;2022-09-24T15:57:43;17.80;56.10
43963;DHT22;29622;45.534;9.242;2022-09-24T16:02:53;17.80;55.90
43963;DHT22;29622;45.534;9.242;2022-09-24T16:07:54;17.70;56.10
43963;DHT22;29622;45.534;9.242;2022-09-24T16:12:58;17.70;56.40
43963;DHT22;29622;45.534;9.242;2022-09-24T16:18:02;17.80;56.40
43963;DHT22;29622;45.534;9.242;2022-09-24T16:23:03;17.80;56.50
43963;DHT22;29622;45.534;9.242;2022-09-24T16:28:04;17.70;56.70
43963;DHT22;29622;45.534;9.242;2022-09-24T16:33:05;17.60;57.00
43963;DHT22;29622;45.534;9.242;2022-09-24T16:38:12;17.60;57.10
43963;DHT22;29622;45.534;9.242;2022-09-24T16:43:16;17.60;57.20
43963;DHT22;29622;45.534;9.242;2022-09-24T16:53:59;17.50;57.60
43963;DHT22;29622;45.534;9.242;2022-09-24T16:58:59;17.50;57.50
43963;DHT22;29622;45.534;9.242;2022-09-24T17:04:00;17.50;57.60
43963;DHT22;29622;45.534;9.242;2022-09-24T17:09:02;17.50;57.70
43963;DHT22;29622;45.534;9.242;2022-09-24T17:14:21;17.40;57.90
43963;DHT22;29622;45.534;9.242;2022-09-24T17:19:22;17.50;57.90
43963;DHT22;29622;45.534;9.242;2022-09-24T17:24:23;17.50;58.00
43963;DHT22;29622;45.534;9.242;2022-09-24T17:29:23;17.60;57.90
43963;DHT22;29622;45.534;9.242;2022-09-24T17:34:24;17.70;57.80
43963;DHT22;29622;45.534;9.242;2022-09-24T17:39:25;17.60;57.80
43963;DHT22;29622;45.534;9.242;2022-09-24T17:44:27;17.50;57.90
43963;DHT22;29622;45.534;9.242;2022-09-24T17:49:28;17.60;58.10
43963;DHT22;29622;45.534;9.242;2022-09-24T17:54:28;17.70;58.10
43963;DHT22;29622;45.534;9.242;2022-09-24T17:59:29;17.80;57.90
43963;DHT22;29622;45.534;9.242;2022-09-24T18:04:29;17.80;58.00
43963;DHT22;29622;45.534;9.242;2022-09-24T18:09:30;17.80;57.90
43963;DHT22;29622;45.534;9.242;2022-09-24T18:14:31;17.90;57.90
43963;DHT22;29622;45.534;9.242;2022-09-24T18:19:34;17.90;57.90
43963;DHT22;29622;45.534;9.242;2022-09-24T18:24:35;17.80;57.80
43963;DHT22;29622;45.534;9.242;2022-09-24T18:29:36;17.80;57.90
43963;DHT22;29622;45.534;9.242;2022-09-24T18:34:36;17.80;58.00
43963;DHT22;29622;45.534;9.242;2022-09-24T18:39:37;17.90;57.70
43963;DHT22;29622;45.534;9.242;2022-09-24T18:44:38;17.80;57.70
43963;DHT22;29622;45.534;9.242;2022-09-24T18:49:40;17.70;57.90
43963;DHT22;29622;45.534;9.242;2022-09-24T18:54:41;17.50;58.10
43963;DHT22;29622;45.534;9.242;2022-09-24T18:59:41;17.40;58.30
43963;DHT22;29622;45.534;9.242;2022-09-24T19:04:46;17.40;58.40
43963;DHT22;29622;45.534;9.242;2022-09-24T19:09:46;17.30;58.50
43963;DHT22;29622;45.534;9.242;2022-09-24T19:14:47;17.30;58.60
43963;DHT22;29622;45.534;9.242;2022-09-24T19:19:48;17.30;58.80
43963;DHT22;29622;45.534;9.242;2022-09-24T19:24:48;17.20;58.90
43963;DHT22;29622;45.534;9.242;2022-09-24T19:29:49;17.40;59.30
43963;DHT22;29622;45.534;9.242;2022-09-24T19:34:53;17.90;58.90
43963;DHT22;29622;45.534;9.242;2022-09-24T19:39:56;18.00;58.20
43963;DHT22;29622;45.534;9.242;2022-09-24T19:44:56;17.90;58.30
43963;DHT22;29622;45.534;9.242;2022-09-24T19:49:58;17.80;58.30
43963;DHT22;29622;45.534;9.242;2022-09-24T19:54:59;17.80;58.30
43963;DHT22;29622;45.534;9.242;2022-09-24T20:00:01;17.70;58.20
43963;DHT22;29622;45.534;9.242;2022-09-24T20:05:02;17.60;58.40
43963;DHT22;29622;45.534;9.242;2022-09-24T20:10:03;17.50;58.50
43963;DHT22;29622;45.534;9.242;2022-09-24T20:15:04;17.50;58.50
43963;DHT22;29622;45.534;9.242;2022-09-24T20:20:06;17.50;58.60
43963;DHT22;29622;45.534;9.242;2022-09-24T20:25:07;17.50;58.70
43963;DHT22;29622;45.534;9.242;2022-09-24T20:30:08;17.50;58.80
43963;DHT22;29622;45.534;9.242;2022-09-24T20:35:10;17.60;58.60
43963;DHT22;29622;45.534;9.242;2022-09-24T20:40:12;17.50;58.60
43963;DHT22;29622;45.534;9.242;2022-09-24T20:45:12;17.50;58.70
43963;DHT22;29622;45.534;9.242;2022-09-24T20:50:13;17.40;58.80
43963;DHT22;29622;45.534;9.242;2022-09-24T20:55:14;17.40;58.80
43963;DHT22;29622;45.534;9.242;2022-09-24T21:00:15;17.30;58.90
43963;DHT22;29622;45.534;9.242;2022-09-24T21:05:16;17.20;59.00
43963;DHT22;29622;45.534;9.242;2022-09-24T21:10:16;17.20;59.20
43963;DHT22;29622;45.534;9.242;2022-09-24T21:15:18;17.20;59.30
43963;DHT22;29622;45.534;9.242;2022-09-24T21:20:18;17.20;59.40
43963;DHT22;29622;45.534;9.242;2022-09-24T21:25:19;17.20;59.60
43963;DHT22;29622;45.534;9.242;2022-09-24T21:30:21;17.10;59.70
43963;DHT22;29622;45.534;9.242;2022-09-24T21:35:22;17.00;59.80
43963;DHT22;29622;45.534;9.242;2022-09-24T21:40:22;17.00;60.00
43963;DHT22;29622;45.534;9.242;2022-09-24T21:45:23;17.00;60.30
43963;DHT22;29622;45.534;9.242;2022-09-24T21:50:24;17.00;60.30
43963;DHT22;29622;45.534;9.242;2022-09-24T21:55:25;17.00;60.40
43963;DHT22;29622;45.534;9.242;2022-09-24T22:00:25;17.00;60.40
43963;DHT22;29622;45.534;9.242;2022-09-24T22:05:26;17.00;60.40
43963;DHT22;29622;45.534;9.242;2022-09-24T22:10:26;17.00;60.40
43963;DHT22;29622;45.534;9.242;2022-09-24T22:15:27;17.00;60.50
43963;DHT22;29622;45.534;9.242;2022-09-24T22:20:28;17.10;61.00
43963;DHT22;29622;45.534;9.242;2022-09-24T22:25:29;17.10;60.90
43963;DHT22;29622;45.534;9.242;2022-09-24T22:30:30;17.10;61.20
43963;DHT22;29622;45.534;9.242;2022-09-24T22:35:31;17.10;61.40
43963;DHT22;29622;45.534;9.242;2022-09-24T22:40:49;17.00;62.40
43963;DHT22;29622;45.534;9.242;2022-09-24T22:46:02;17.00;61.90
43963;DHT22;29622;45.534;9.242;2022-09-24T22:51:04;16.90;62.30
43963;DHT22;29622;45.534;9.242;2022-09-24T23:01:10;16.90;62.50
43963;DHT22;29622;45.534;9.242;2022-09-24T23:06:11;16.90;62.50
43963;DHT22;29622;45.534;9.242;2022-09-24T23:11:14;16.90;62.40
43963;DHT22;29622;45.534;9.242;2022-09-24T23:16:17;17.00;62.40
43963;DHT22;29622;45.534;9.242;2022-09-24T23:21:19;17.10;62.10
43963;DHT22;29622;45.534;9.242;2022-09-24T23:26:21;17.20;62.30
43963;DHT22;29622;45.534;9.242;2022-09-24T23:31:25;17.40;61.90
43963;DHT22;29622;45.534;9.242;2022-09-24T23:36:29;17.50;61.30
43963;DHT22;29622;45.534;9.242;2022-09-24T23:41:30;17.20;61.40
43963;DHT22;29622;45.534;9.242;2022-09-24T23:46:32;17.20;61.70
43963;DHT22;29622;45.534;9.242;2022-09-24T23:51:33;17.60;61.30
43963;DHT22;29622;45.534;9.242;2022-09-24T23:56:33;18.00;60.00
